createdAt,value
2023-01-21T00:04:40.513Z,87.85
2023-01-21T00:07:08.722Z,93.30
2023-01-21T00:09:36.800Z,93.13
2023-01-21T00:12:05.875Z,86.60
2023-01-21T00:14:33.689Z,96.85
2023-01-21T00:17:01.557Z,88.18
2023-01-21T00:19:29.740Z,91.40
2023-01-21T00:21:57.688Z,95.93
2023-01-21T00:24:25.339Z,99.55
2023-01-21T00:26:53.949Z,99.10
2023-01-21T00:29:22.068Z,110.03
2023-01-21T00:31:50.002Z,107.55
2023-01-21T00:34:18.253Z,105.60
2023-01-21T00:36:47.043Z,123.55
2023-01-21T00:39:14.635Z,125.00
2023-01-21T00:41:42.761Z,104.05
2023-01-21T00:44:10.573Z,120.10
2023-01-21T00:46:40.903Z,117.93
2023-01-21T00:49:08.574Z,127.07
2023-01-21T00:51:36.475Z,126.88
2023-01-21T00:54:03.887Z,122.38
2023-01-21T00:56:31.516Z,126.88
2023-01-21T00:58:59.359Z,130.45
2023-01-21T01:03:38.429Z,121.25
2023-01-21T01:06:10.798Z,120.60
2023-01-21T01:08:38.392Z,118.13
2023-01-21T01:11:06.346Z,112.28
2023-01-21T01:13:34.909Z,121.15
2023-01-21T01:16:03.200Z,117.32
2023-01-21T01:18:32.563Z,117.80
2023-01-21T01:21:02.487Z,115.70
2023-01-21T01:23:32.094Z,114.85
2023-01-21T01:26:01.280Z,106.90
2023-01-21T01:28:29.487Z,101.78
2023-01-21T01:30:57.478Z,106.60
2023-01-21T01:33:25.504Z,104.88
2023-01-21T01:35:53.293Z,96.20
2023-01-21T01:38:23.322Z,98.35
2023-01-21T01:40:52.711Z,91.25
2023-01-21T01:43:21.908Z,89.35
2023-01-21T01:45:49.547Z,89.38
2023-01-21T01:48:21.366Z,103.95
2023-01-21T01:50:49.377Z,100.45
2023-01-21T01:53:18.373Z,87.18
2023-01-21T01:55:47.144Z,94.55
2023-01-21T01:58:15.943Z,96.00
2023-01-21T02:00:43.532Z,90.20
2023-01-21T02:03:30.988Z,94.85
2023-01-21T02:05:58.631Z,88.50
2023-01-21T02:08:27.553Z,87.15
2023-01-21T02:10:56.567Z,98.40
2023-01-21T02:13:25.240Z,93.30
2023-01-21T02:15:55.903Z,91.95
2023-01-21T02:18:43.896Z,93.88
2023-01-21T02:21:30.397Z,89.53
2023-01-21T02:24:20.634Z,93.90
2023-01-21T02:26:48.499Z,85.50
2023-01-21T02:29:18.912Z,92.18
2023-01-21T02:32:05.429Z,87.25
2023-01-21T02:34:51.931Z,93.97
2023-01-21T02:37:19.649Z,85.10
2023-01-21T02:39:50.213Z,86.22
2023-01-21T02:42:17.937Z,84.72
2023-01-21T02:44:51.820Z,87.60
2023-01-21T02:47:19.532Z,93.88
2023-01-21T02:49:51.485Z,84.97
2023-01-21T02:52:26.285Z,89.57
2023-01-21T02:54:55.208Z,85.82
2023-01-21T02:57:25.740Z,89.45
2023-01-21T02:59:54.811Z,84.47
2023-01-21T03:02:22.537Z,90.82
2023-01-21T03:05:04.017Z,87.43
2023-01-21T03:07:34.597Z,88.68
2023-01-21T03:10:21.121Z,88.97
2023-01-21T03:12:48.855Z,86.30
2023-01-21T03:16:04.043Z,80.75
2023-01-21T03:18:37.638Z,81.18
2023-01-21T03:21:07.944Z,81.63
2023-01-21T03:23:37.774Z,83.10
2023-01-21T03:26:06.069Z,75.82
2023-01-21T03:28:35.556Z,82.93
2023-01-21T03:31:08.201Z,85.00
2023-01-21T03:33:38.606Z,80.97
2023-01-21T03:38:36.929Z,75.07
2023-01-21T03:41:16.803Z,91.50
2023-01-21T03:43:44.447Z,83.18
2023-01-21T03:46:16.955Z,86.85
2023-01-21T03:49:23.456Z,80.93
2023-01-21T03:51:54.112Z,81.55
2023-01-21T03:54:21.779Z,87.47
2023-01-21T03:56:49.443Z,79.63
2023-01-21T03:59:17.165Z,92.93
2023-01-21T04:01:44.668Z,82.13
2023-01-21T04:04:12.187Z,86.45
2023-01-21T04:06:39.898Z,84.97
2023-01-21T04:09:07.929Z,75.97
2023-01-21T04:11:35.778Z,76.50
2023-01-21T04:14:03.374Z,83.60
2023-01-21T04:16:30.883Z,78.70
2023-01-21T04:19:01.711Z,84.95
2023-01-21T04:21:29.459Z,84.75
2023-01-21T04:23:57.125Z,89.95
2023-01-21T04:26:24.645Z,80.72
2023-01-21T04:28:52.273Z,90.05
2023-01-21T04:31:19.804Z,88.35
2023-01-21T04:33:47.914Z,79.47
2023-01-21T04:36:15.825Z,85.00
2023-01-21T04:38:43.362Z,81.55
2023-01-21T04:41:11.012Z,83.35
2023-01-21T04:43:38.692Z,87.80
2023-01-21T04:46:06.320Z,86.30
2023-01-21T04:48:35.145Z,98.05
2023-01-21T04:51:12.053Z,90.60
2023-01-21T04:53:40.023Z,92.50
2023-01-21T04:56:07.703Z,95.38
2023-01-21T04:58:35.925Z,90.80
2023-01-21T05:01:07.103Z,91.25
2023-01-21T05:03:34.666Z,91.50
2023-01-21T05:06:02.233Z,91.00
2023-01-21T05:08:30.652Z,88.43
2023-01-21T05:10:58.290Z,91.95
2023-01-21T05:13:25.769Z,83.68
2023-01-21T05:15:53.952Z,99.20
2023-01-21T05:18:21.300Z,93.20
2023-01-21T05:20:48.816Z,85.93
2023-01-21T05:23:17.255Z,95.90
2023-01-21T05:25:44.900Z,91.82
2023-01-21T05:28:13.268Z,95.00
2023-01-21T05:30:43.247Z,89.55
2023-01-21T05:33:12.330Z,85.15
2023-01-21T05:35:39.823Z,87.78
2023-01-21T05:38:07.321Z,86.65
2023-01-21T05:40:35.027Z,98.53
2023-01-21T05:43:02.721Z,89.13
2023-01-21T05:45:30.260Z,90.55
2023-01-21T05:47:57.770Z,98.53
2023-01-21T05:50:25.412Z,104.47
2023-01-21T05:52:53.023Z,99.63
2023-01-21T05:55:20.511Z,92.07
2023-01-21T05:57:47.928Z,100.05
2023-01-21T06:00:17.521Z,90.28
2023-01-21T06:02:45.123Z,102.93
2023-01-21T06:05:13.319Z,105.63
2023-01-21T06:07:40.993Z,104.43
2023-01-21T06:10:09.096Z,101.55
2023-01-21T06:12:36.545Z,100.75
2023-01-21T06:15:04.126Z,107.75
2023-01-21T06:17:31.745Z,104.35
2023-01-21T06:19:59.248Z,100.40
2023-01-21T06:22:27.203Z,112.97
2023-01-21T06:24:54.598Z,114.50
2023-01-21T06:27:22.157Z,119.10
2023-01-21T06:29:49.718Z,112.03
2023-01-21T06:32:17.244Z,116.20
2023-01-21T06:34:46.880Z,122.80
2023-01-21T06:37:14.652Z,113.95
2023-01-21T06:39:41.975Z,121.78
2023-01-21T06:42:09.510Z,121.15
2023-01-21T06:44:37.024Z,118.50
2023-01-21T06:47:04.515Z,109.72
2023-01-21T06:49:32.347Z,125.50
2023-01-21T06:52:00.316Z,120.80
2023-01-21T06:54:30.299Z,121.20
2023-01-21T06:59:25.803Z,120.82
2023-01-21T07:01:53.672Z,121.78
2023-01-21T07:04:22.245Z,129.60
2023-01-21T07:06:50.229Z,138.45
2023-01-21T07:09:18.333Z,136.10
2023-01-21T07:11:46.250Z,133.30
2023-01-21T07:14:13.993Z,131.35
2023-01-21T07:16:41.567Z,139.18
2023-01-21T07:19:10.411Z,135.02
2023-01-21T07:21:38.264Z,132.48
2023-01-21T07:24:08.574Z,136.13
2023-01-21T07:26:38.200Z,121.88
2023-01-21T07:29:06.911Z,129.27
2023-01-21T07:31:34.999Z,124.68
2023-01-21T07:34:04.111Z,130.70
2023-01-21T07:36:31.978Z,131.50
2023-01-21T07:38:59.658Z,128.60
2023-01-21T07:41:27.389Z,123.47
2023-01-21T07:43:55.115Z,138.57
2023-01-21T07:46:23.342Z,136.77
2023-01-21T07:48:51.891Z,133.32
2023-01-21T07:51:24.183Z,144.52
2023-01-21T07:53:51.836Z,149.10
2023-01-21T07:56:20.436Z,134.20
2023-01-21T07:58:48.420Z,125.60
2023-01-21T08:01:16.277Z,144.65
2023-01-21T08:03:44.488Z,132.60
2023-01-21T08:06:12.249Z,133.55
2023-01-21T08:08:39.772Z,124.60
2023-01-21T08:11:07.211Z,139.90
2023-01-21T08:13:34.862Z,130.45
2023-01-21T08:16:02.285Z,140.60
2023-01-21T08:18:29.940Z,143.70
2023-01-21T08:21:00.263Z,136.82
2023-01-21T08:25:55.650Z,136.43
2023-01-21T08:28:23.909Z,149.65
2023-01-21T08:30:52.311Z,135.20
2023-01-21T08:33:19.916Z,153.40
2023-01-21T08:35:48.651Z,149.68
2023-01-21T08:38:16.159Z,160.18
2023-01-21T08:40:43.520Z,152.32
2023-01-21T08:43:11.383Z,148.98
2023-01-21T08:45:39.057Z,144.88
2023-01-21T08:48:06.862Z,150.48
2023-01-21T08:50:34.845Z,136.75
2023-01-21T08:53:04.943Z,153.50
2023-01-21T08:55:32.779Z,144.55
2023-01-21T08:58:00.782Z,138.85
2023-01-21T09:00:28.466Z,132.07
2023-01-21T09:02:56.544Z,141.95
2023-01-21T09:05:24.093Z,137.15
2023-01-21T09:07:51.912Z,146.50
2023-01-21T09:10:42.080Z,140.02
2023-01-21T09:13:10.816Z,137.02
2023-01-21T09:15:40.879Z,137.55
2023-01-21T09:18:08.512Z,134.20
2023-01-21T09:20:36.304Z,130.20
2023-01-21T09:23:24.598Z,137.60
2023-01-21T09:25:55.159Z,132.90
2023-01-21T09:30:57.060Z,134.43
2023-01-21T09:33:25.043Z,130.77
2023-01-21T09:35:56.032Z,129.50
2023-01-21T09:38:24.704Z,130.05
2023-01-21T09:40:52.622Z,121.22
2023-01-21T09:43:23.265Z,117.35
2023-01-21T09:45:52.979Z,128.02
2023-01-21T09:48:28.751Z,121.28
2023-01-21T09:50:57.579Z,114.05
2023-01-21T09:53:28.356Z,116.38
2023-01-21T09:55:58.854Z,112.43
2023-01-21T09:58:31.233Z,119.38
2023-01-21T10:01:02.490Z,115.78
2023-01-21T10:03:33.348Z,116.30
2023-01-21T10:06:27.044Z,112.65
2023-01-21T10:09:06.081Z,112.40
2023-01-21T10:11:56.177Z,110.18
2023-01-21T10:14:29.755Z,104.93
2023-01-21T10:17:00.444Z,112.30
2023-01-21T10:19:33.995Z,107.75
2023-01-21T10:22:05.688Z,106.70
2023-01-21T10:24:38.788Z,107.80
2023-01-21T10:27:06.605Z,100.53
2023-01-21T10:29:37.247Z,107.68
2023-01-21T10:32:07.100Z,100.68
2023-01-21T10:34:48.535Z,100.82
2023-01-21T10:37:38.320Z,95.63
2023-01-21T10:40:09.077Z,114.10
2023-01-21T10:42:49.232Z,103.40
2023-01-21T10:45:38.719Z,100.47
2023-01-21T10:48:28.984Z,110.40
2023-01-21T10:51:02.976Z,93.38
2023-01-21T10:53:30.384Z,89.65
2023-01-21T10:56:00.876Z,98.10
2023-01-21T10:58:38.452Z,94.45
2023-01-21T11:01:07.994Z,88.22
2023-01-21T11:03:41.733Z,90.70
2023-01-21T11:06:12.151Z,83.40
2023-01-21T11:08:41.284Z,85.63
2023-01-21T11:11:09.516Z,88.30
2023-01-21T11:13:36.965Z,83.35
2023-01-21T11:16:05.981Z,82.72
2023-01-21T11:18:37.963Z,77.65
2023-01-21T11:21:25.759Z,75.03
2023-01-21T11:24:05.027Z,75.22
2023-01-21T11:26:34.331Z,69.22
2023-01-21T11:29:14.563Z,71.78
2023-01-21T11:31:43.271Z,69.35
2023-01-21T11:34:15.887Z,72.43
2023-01-21T11:37:02.426Z,59.55
2023-01-21T11:39:32.535Z,63.38
2023-01-21T11:42:08.488Z,66.18
2023-01-21T11:44:54.459Z,58.97
2023-01-21T11:47:38.848Z,60.03
2023-01-21T11:50:13.651Z,58.22
2023-01-21T11:52:41.743Z,60.22
2023-01-21T11:55:26.068Z,58.58
2023-01-21T11:57:57.328Z,64.65
2023-01-21T12:00:27.133Z,56.58
2023-01-21T12:02:59.244Z,57.90
2023-01-21T12:05:33.141Z,53.83
2023-01-21T12:08:01.965Z,53.20
2023-01-21T12:10:30.646Z,52.15
2023-01-21T12:13:06.099Z,59.55
2023-01-21T12:16:03.933Z,54.88
2023-01-21T12:18:34.706Z,52.85
2023-01-21T12:21:02.239Z,53.63
2023-01-21T12:23:32.828Z,56.65
2023-01-21T12:26:19.088Z,55.20
2023-01-21T12:29:03.315Z,49.42
2023-01-21T12:31:43.738Z,50.10
2023-01-21T12:34:22.509Z,43.97
2023-01-21T12:37:13.084Z,51.10
2023-01-21T12:42:17.655Z,46.03
2023-01-21T12:44:48.253Z,49.88
2023-01-21T12:47:42.080Z,46.40
2023-01-21T12:50:21.915Z,45.97
2023-01-21T12:52:49.692Z,50.53
2023-01-21T12:55:23.191Z,47.65
2023-01-21T12:58:11.207Z,47.17
2023-01-21T13:00:40.952Z,42.30
2023-01-21T13:03:27.495Z,45.77
2023-01-21T13:05:55.678Z,43.95
2023-01-21T13:08:42.598Z,47.40
2023-01-21T13:11:19.345Z,44.60
2023-01-21T13:14:10.385Z,46.17
2023-01-21T13:16:59.109Z,44.85
2023-01-21T13:19:27.053Z,47.28
2023-01-21T13:22:03.806Z,46.30
2023-01-21T13:24:44.151Z,41.63
2023-01-21T13:27:30.173Z,39.25
2023-01-21T13:30:04.082Z,43.78
2023-01-21T13:32:34.673Z,43.58
2023-01-21T13:35:02.332Z,45.67
2023-01-21T13:37:31.167Z,44.95
2023-01-21T13:40:00.125Z,46.60
2023-01-21T13:42:44.597Z,43.47
2023-01-21T13:45:20.264Z,44.40
2023-01-21T13:48:10.709Z,40.58
2023-01-21T13:50:38.318Z,42.20
2023-01-21T13:53:08.766Z,40.85
2023-01-21T13:58:09.508Z,41.20
2023-01-21T14:00:52.807Z,42.53
2023-01-21T14:03:28.993Z,41.65
2023-01-21T14:06:09.700Z,43.72
2023-01-21T14:08:53.001Z,39.58
2023-01-21T14:11:37.535Z,44.10
2023-01-21T14:14:23.531Z,40.53
2023-01-21T14:16:57.164Z,40.72
2023-01-21T14:19:24.712Z,45.40
2023-01-21T14:21:59.283Z,41.70
2023-01-21T14:24:30.528Z,42.63
2023-01-21T14:27:07.459Z,45.03
2023-01-21T14:29:56.371Z,45.35
2023-01-21T14:32:28.506Z,44.70
2023-01-21T14:35:14.992Z,47.15
2023-01-21T14:38:05.684Z,49.90
2023-01-21T14:40:47.638Z,44.42
2023-01-21T14:43:31.574Z,45.88
2023-01-21T14:46:00.298Z,47.95
2023-01-21T14:48:32.908Z,46.75
2023-01-21T14:51:07.005Z,43.80
2023-01-21T14:53:47.150Z,45.63
2023-01-21T14:56:26.353Z,46.55
2023-01-21T14:58:58.896Z,48.47
2023-01-21T15:01:31.256Z,47.60
2023-01-21T15:04:00.494Z,46.58
2023-01-21T15:06:28.057Z,50.97
2023-01-21T15:09:00.993Z,51.00
2023-01-21T15:11:31.338Z,54.95
2023-01-21T15:14:02.907Z,45.95
2023-01-21T15:16:39.850Z,48.60
2023-01-21T15:19:11.366Z,51.78
2023-01-21T15:21:43.134Z,50.03
2023-01-21T15:24:18.102Z,46.00
2023-01-21T15:27:06.223Z,45.92
2023-01-21T15:29:39.078Z,49.97
2023-01-21T15:32:20.700Z,49.40
2023-01-21T15:34:50.908Z,46.78
2023-01-21T15:37:21.825Z,46.08
2023-01-21T15:39:53.162Z,47.10
2023-01-21T15:42:28.463Z,47.03
2023-01-21T15:44:56.459Z,45.97
2023-01-21T15:47:36.372Z,49.78
2023-01-21T15:50:19.887Z,43.33
2023-01-21T15:53:07.520Z,47.30
2023-01-21T15:55:54.182Z,45.83
2023-01-21T15:58:42.594Z,49.40
2023-01-21T16:01:17.363Z,52.78
2023-01-21T16:04:08.440Z,50.80
2023-01-21T16:06:35.892Z,47.25
2023-01-21T16:09:07.138Z,48.22
2023-01-21T16:11:43.012Z,45.78
2023-01-21T16:14:17.179Z,59.38
2023-01-21T16:16:52.136Z,50.30
2023-01-21T16:19:21.439Z,48.28
2023-01-21T16:21:51.346Z,47.13
2023-01-21T16:24:21.694Z,46.30
2023-01-21T16:26:49.433Z,48.67
2023-01-21T16:29:17.240Z,53.17
2023-01-21T16:32:00.085Z,54.58
2023-01-21T16:34:37.464Z,51.20
2023-01-21T16:37:11.206Z,47.45
2023-01-21T16:39:39.868Z,46.75
2023-01-21T16:42:08.113Z,45.83
2023-01-21T16:44:36.989Z,46.72
2023-01-21T16:47:05.071Z,45.65
2023-01-21T16:49:34.541Z,49.03
2023-01-21T16:52:03.289Z,48.55
2023-01-21T16:54:32.267Z,43.03
2023-01-21T16:57:05.440Z,49.47
2023-01-21T16:59:33.001Z,45.55
2023-01-21T17:02:00.775Z,47.13
2023-01-21T17:04:29.022Z,42.58
2023-01-21T17:06:56.730Z,46.92
2023-01-21T17:09:27.203Z,50.25
2023-01-21T17:11:55.760Z,44.28
2023-01-21T17:14:28.123Z,44.33
2023-01-21T17:16:57.019Z,43.67
2023-01-21T17:19:34.952Z,43.55
2023-01-21T17:22:32.195Z,42.15
2023-01-21T17:24:59.771Z,47.80
2023-01-21T17:27:27.620Z,42.00
2023-01-21T17:30:15.605Z,44.28
2023-01-21T17:32:43.379Z,43.85
2023-01-21T17:35:16.290Z,47.50
2023-01-21T17:37:47.942Z,40.15
2023-01-21T17:40:34.838Z,45.55
2023-01-21T17:43:14.974Z,44.88
2023-01-21T17:45:48.146Z,42.28
2023-01-21T17:48:21.897Z,46.97
2023-01-21T17:50:49.438Z,43.38
2023-01-21T17:53:22.486Z,47.22
2023-01-21T17:55:57.719Z,53.17
2023-01-21T17:58:44.100Z,48.80
2023-01-21T18:01:11.941Z,53.20
2023-01-21T18:03:40.161Z,46.10
2023-01-21T18:06:13.720Z,55.28
2023-01-21T18:08:41.605Z,47.28
2023-01-21T18:11:09.589Z,46.78
2023-01-21T18:13:38.523Z,51.78
2023-01-21T18:16:06.237Z,54.50
2023-01-21T18:18:34.998Z,52.47
2023-01-21T18:21:03.030Z,47.67
2023-01-21T18:23:31.162Z,49.83
2023-01-21T18:25:59.128Z,47.58
2023-01-21T18:28:28.701Z,49.15
2023-01-21T18:30:57.483Z,51.28
2023-01-21T18:33:25.424Z,54.08
2023-01-21T18:35:53.443Z,50.65
2023-01-21T18:38:27.614Z,59.05
2023-01-21T18:40:55.904Z,53.22
2023-01-21T18:43:23.851Z,53.47
2023-01-21T18:45:53.932Z,54.00
2023-01-21T18:48:23.623Z,49.75
2023-01-21T18:50:54.402Z,52.80
2023-01-21T18:53:22.077Z,53.42
2023-01-21T18:55:51.821Z,50.38
2023-01-21T18:58:19.323Z,50.28
2023-01-21T19:00:47.026Z,51.67
2023-01-21T19:03:16.395Z,51.88
2023-01-21T19:05:48.195Z,52.65
2023-01-21T19:08:17.962Z,46.75
2023-01-21T19:10:45.822Z,47.65
2023-01-21T19:13:13.625Z,56.65
2023-01-21T19:15:42.049Z,53.53
2023-01-21T19:18:13.868Z,52.75
2023-01-21T19:20:41.955Z,52.55
2023-01-21T19:23:17.244Z,49.13
2023-01-21T19:25:55.194Z,53.40
2023-01-21T19:28:27.062Z,48.40
2023-01-21T19:30:55.630Z,47.60
2023-01-21T19:33:23.814Z,50.20
2023-01-21T19:35:53.044Z,53.97
2023-01-21T19:38:21.588Z,49.95
2023-01-21T19:40:51.784Z,51.17
2023-01-21T19:43:23.471Z,53.45
2023-01-21T19:45:51.710Z,52.83
2023-01-21T19:48:24.900Z,53.65
2023-01-21T19:50:52.507Z,61.97
2023-01-21T19:53:24.619Z,53.53
2023-01-21T19:55:52.363Z,54.80
2023-01-21T19:58:21.809Z,50.35
2023-01-21T20:00:49.829Z,59.00
2023-01-21T20:03:19.481Z,57.33
2023-01-21T20:05:48.526Z,48.55
2023-01-21T20:08:19.287Z,54.72
2023-01-21T20:10:47.310Z,57.58
2023-01-21T20:13:15.980Z,62.50
2023-01-21T20:15:44.613Z,60.90
2023-01-21T20:18:18.877Z,55.50
2023-01-21T20:20:47.693Z,54.83
2023-01-21T20:23:16.308Z,58.50
2023-01-21T20:25:44.476Z,60.83
2023-01-21T20:28:21.449Z,58.83
2023-01-21T20:30:50.114Z,61.08
2023-01-21T20:33:19.484Z,55.10
2023-01-21T20:35:51.758Z,65.47
2023-01-21T20:38:42.226Z,63.28
2023-01-21T20:43:37.630Z,57.65
2023-01-21T20:46:06.975Z,61.70
2023-01-21T20:48:36.918Z,64.85
2023-01-21T20:51:04.545Z,70.88
2023-01-21T20:53:32.539Z,60.03
2023-01-21T20:56:03.048Z,57.85
2023-01-21T20:58:31.462Z,61.63
2023-01-21T21:00:58.982Z,59.08
2023-01-21T21:03:27.043Z,57.20
2023-01-21T21:05:55.108Z,57.63
2023-01-21T21:08:23.399Z,57.53
2023-01-21T21:10:55.563Z,56.75
2023-01-21T21:13:23.143Z,58.25
2023-01-21T21:15:51.083Z,60.17
2023-01-21T21:18:18.682Z,57.95
2023-01-21T21:20:47.412Z,58.60
2023-01-21T21:23:18.259Z,55.28
2023-01-21T21:25:47.297Z,52.75
2023-01-21T21:28:16.571Z,56.10
2023-01-21T21:30:44.863Z,54.47
2023-01-21T21:33:21.277Z,58.67
2023-01-21T21:35:49.909Z,51.38
2023-01-21T21:38:21.730Z,60.17
2023-01-21T21:40:53.418Z,53.35
2023-01-21T21:43:38.864Z,53.35
2023-01-21T21:46:26.197Z,59.25
2023-01-21T21:48:54.330Z,52.72
2023-01-21T21:51:22.670Z,55.85
2023-01-21T21:56:58.939Z,58.20
2023-01-21T21:59:26.538Z,57.15
2023-01-21T22:01:54.508Z,57.45
2023-01-21T22:04:23.132Z,55.92
2023-01-21T22:06:50.914Z,53.35
2023-01-21T22:09:18.880Z,56.17
2023-01-21T22:11:47.390Z,58.03
2023-01-21T22:14:16.290Z,54.53
2023-01-21T22:16:45.360Z,56.70
2023-01-21T22:19:13.421Z,57.45
2023-01-21T22:21:41.775Z,55.20
2023-01-21T22:24:10.288Z,54.63
2023-01-21T22:26:38.199Z,50.05
2023-01-21T22:29:06.292Z,52.38
2023-01-21T22:31:34.483Z,49.80
2023-01-21T22:34:05.236Z,55.55
2023-01-21T22:36:32.759Z,57.53
2023-01-21T22:39:00.538Z,55.25
2023-01-21T22:41:28.428Z,55.60
2023-01-21T22:43:56.355Z,56.65
2023-01-21T22:46:25.338Z,49.15
2023-01-21T22:48:54.523Z,52.00
2023-01-21T22:51:23.170Z,50.65
2023-01-21T22:53:52.387Z,51.05
2023-01-21T22:56:22.229Z,45.55
2023-01-21T22:58:51.336Z,48.15
2023-01-21T23:01:22.179Z,45.83
2023-01-21T23:03:49.923Z,48.22
2023-01-21T23:06:18.894Z,45.03
2023-01-21T23:08:47.154Z,47.60
2023-01-21T23:11:16.983Z,49.50
2023-01-21T23:13:53.525Z,48.00
2023-01-21T23:16:21.365Z,47.35
2023-01-21T23:18:49.235Z,46.58
2023-01-21T23:21:18.630Z,50.72
2023-01-21T23:23:46.102Z,47.70
2023-01-21T23:26:14.091Z,47.13
2023-01-21T23:28:41.852Z,49.50
2023-01-21T23:31:17.778Z,46.85
2023-01-21T23:33:47.375Z,43.60
2023-01-21T23:36:15.124Z,51.28
2023-01-21T23:38:45.623Z,46.85
2023-01-21T23:41:14.730Z,46.35
2023-01-21T23:43:42.166Z,49.28
2023-01-21T23:46:14.422Z,44.20
2023-01-21T23:48:41.951Z,46.97
2023-01-21T23:51:12.253Z,40.42
2023-01-21T23:53:40.000Z,44.83
2023-01-21T23:56:10.088Z,44.47
2023-01-21T23:58:37.856Z,44.97
